createdAt,value
2023-04-02T00:00:09.720Z,9.75
2023-04-02T00:05:18.157Z,9.69
2023-04-02T00:10:27.955Z,9.69
2023-04-02T00:15:26.997Z,9.69
2023-04-02T00:20:27.359Z,9.82
2023-04-02T00:25:43.092Z,9.70
2023-04-02T00:31:10.662Z,9.52
2023-04-02T00:36:09.634Z,9.56
2023-04-02T00:41:08.511Z,9.48
2023-04-02T00:46:24.185Z,9.48
2023-04-02T00:51:26.017Z,9.36
2023-04-02T00:56:36.646Z,9.31
2023-04-02T01:01:37.838Z,9.31
2023-04-02T01:06:38.920Z,8.71
2023-04-02T01:11:52.822Z,8.61
2023-04-02T01:17:10.845Z,8.93
2023-04-02T01:22:21.875Z,8.77
2023-04-02T01:27:23.642Z,8.56
2023-04-02T01:32:24.866Z,8.43
2023-04-02T01:37:36.842Z,8.34
2023-04-02T01:43:08.721Z,8.19
2023-04-02T01:48:16.889Z,8.05
2023-04-02T01:53:18.023Z,7.96
2023-04-02T01:58:26.337Z,7.94
2023-04-02T02:03:27.157Z,8.26
2023-04-02T02:08:34.689Z,8.06
2023-04-02T02:13:34.000Z,7.99
2023-04-02T02:18:33.357Z,8.06
2023-04-02T02:23:32.624Z,7.80
2023-04-02T02:28:36.689Z,7.79
2023-04-02T02:33:58.899Z,7.82
2023-04-02T02:39:25.626Z,7.92
2023-04-02T02:44:27.554Z,7.53
2023-04-02T02:49:38.153Z,7.52
2023-04-02T02:54:42.582Z,7.31
2023-04-02T02:59:43.085Z,7.32
2023-04-02T03:04:47.363Z,7.61
2023-04-02T03:10:12.521Z,7.73
2023-04-02T03:15:32.289Z,7.71
2023-04-02T03:20:31.230Z,7.69
2023-04-02T03:26:01.977Z,7.84
2023-04-02T03:31:33.856Z,7.68
2023-04-02T03:36:38.508Z,7.53
2023-04-02T03:41:47.538Z,7.53
2023-04-02T03:46:57.496Z,7.18
2023-04-02T03:52:05.888Z,7.29
2023-04-02T03:57:18.263Z,6.92
2023-04-02T04:02:26.861Z,6.97
2023-04-02T04:07:54.237Z,6.96
2023-04-02T04:13:01.438Z,6.99
2023-04-02T04:18:38.042Z,7.02
2023-04-02T04:23:50.212Z,7.01
2023-04-02T04:29:12.588Z,6.87
2023-04-02T04:34:16.650Z,6.61
2023-04-02T04:39:23.967Z,6.91
2023-04-02T04:44:28.804Z,6.88
2023-04-02T04:50:08.654Z,6.53
2023-04-02T04:55:42.978Z,6.36
2023-04-02T05:01:07.723Z,6.40
2023-04-02T05:06:35.719Z,6.57
2023-04-02T05:11:43.790Z,6.31
2023-04-02T05:16:49.986Z,6.22
2023-04-02T05:22:00.068Z,5.90
2023-04-02T05:27:02.016Z,5.94
2023-04-02T05:32:28.555Z,5.96
2023-04-02T05:37:31.116Z,6.13
2023-04-02T05:42:37.783Z,5.94
2023-04-02T05:47:44.630Z,6.05
2023-04-02T05:53:21.822Z,5.85
2023-04-02T05:58:37.320Z,5.92
2023-04-02T06:04:22.354Z,5.77
2023-04-02T06:09:29.470Z,5.67
2023-04-02T06:14:28.496Z,5.56
2023-04-02T06:19:37.397Z,5.46
2023-04-02T06:24:40.367Z,5.35
2023-04-02T06:29:44.248Z,5.51
2023-04-02T06:34:47.651Z,5.65
2023-04-02T06:39:48.966Z,5.15
2023-04-02T06:44:50.158Z,5.54
2023-04-02T06:50:41.001Z,5.69
2023-04-02T06:55:47.004Z,5.55
2023-04-02T07:00:50.811Z,5.37
2023-04-02T07:06:05.425Z,5.42
2023-04-02T07:11:06.207Z,5.53
2023-04-02T07:16:06.065Z,5.46
2023-04-02T07:21:05.515Z,5.55
2023-04-02T07:26:05.398Z,5.43
2023-04-02T07:31:04.338Z,5.60
2023-04-02T07:36:03.342Z,5.55
2023-04-02T07:41:06.578Z,5.21
2023-04-02T07:46:06.327Z,5.51
2023-04-02T07:51:06.135Z,5.88
2023-04-02T07:56:07.286Z,6.06
2023-04-02T08:01:19.489Z,5.88
2023-04-02T08:06:18.660Z,5.82
2023-04-02T08:11:17.729Z,5.67
2023-04-02T08:16:16.921Z,5.55
2023-04-02T08:21:16.618Z,5.75
2023-04-02T08:26:18.982Z,5.83
2023-04-02T08:31:18.148Z,5.71
2023-04-02T08:36:18.410Z,5.68
2023-04-02T08:41:24.656Z,5.75
2023-04-02T08:46:30.711Z,5.73
2023-04-02T08:51:34.333Z,5.53
2023-04-02T08:57:06.690Z,5.52
2023-04-02T09:02:35.813Z,5.49
2023-04-02T09:07:34.972Z,5.60
2023-04-02T09:12:34.645Z,5.59
2023-04-02T09:17:42.699Z,5.52
2023-04-02T09:22:48.564Z,5.36
2023-04-02T09:27:50.457Z,5.49
2023-04-02T09:32:58.121Z,5.74
2023-04-02T09:38:09.088Z,5.72
2023-04-02T09:43:18.522Z,5.78
2023-04-02T09:48:22.253Z,5.64
2023-04-02T09:53:35.563Z,5.31
2023-04-02T09:58:34.385Z,5.13
2023-04-02T10:03:34.456Z,5.61
2023-04-02T10:08:33.433Z,5.51
2023-04-02T10:13:51.566Z,5.48
2023-04-02T10:18:59.478Z,5.46
2023-04-02T10:23:59.685Z,5.74
2023-04-02T10:29:21.644Z,5.60
2023-04-02T10:34:24.934Z,5.61
2023-04-02T10:39:38.683Z,5.64
2023-04-02T10:44:47.822Z,5.95
2023-04-02T10:50:08.309Z,5.91
2023-04-02T10:55:31.952Z,5.94
2023-04-02T11:00:44.848Z,6.18
2023-04-02T11:05:46.765Z,6.42
2023-04-02T11:10:59.231Z,6.67
2023-04-02T11:15:58.238Z,6.77
2023-04-02T11:21:09.123Z,6.46
2023-04-02T11:26:32.623Z,6.54
2023-04-02T11:31:32.155Z,6.85
2023-04-02T11:36:53.032Z,7.00
2023-04-02T11:42:03.082Z,6.74
2023-04-02T11:47:16.625Z,6.73
2023-04-02T11:52:23.921Z,6.80
2023-04-02T11:58:00.485Z,6.77
2023-04-02T12:03:36.118Z,6.60
2023-04-02T12:08:59.028Z,6.75
2023-04-02T12:13:59.122Z,7.17
2023-04-02T12:18:59.406Z,7.09
2023-04-02T12:23:59.579Z,7.09
2023-04-02T12:29:27.192Z,7.45
2023-04-02T12:34:29.026Z,12.74
2023-04-02T12:39:28.483Z,14.37
2023-04-02T12:44:29.666Z,11.14
2023-04-02T12:49:37.192Z,9.22
2023-04-02T12:54:51.162Z,9.09
2023-04-02T12:59:52.229Z,8.58
2023-04-02T13:05:01.032Z,8.33
2023-04-02T13:10:06.366Z,8.11
2023-04-02T13:15:08.324Z,7.85
2023-04-02T13:20:30.974Z,8.19
2023-04-02T13:25:36.504Z,7.80
2023-04-02T13:30:35.558Z,7.63
2023-04-02T13:35:34.598Z,7.66
2023-04-02T13:40:34.941Z,7.40
2023-04-02T13:45:37.805Z,7.34
2023-04-02T13:50:36.968Z,7.52
2023-04-02T13:55:40.185Z,7.82
2023-04-02T14:00:39.058Z,7.67
2023-04-02T14:05:49.889Z,7.57
2023-04-02T14:11:03.444Z,7.61
2023-04-02T14:16:34.678Z,7.57
2023-04-02T14:21:45.985Z,7.21
2023-04-02T14:27:07.539Z,7.39
2023-04-02T14:32:08.023Z,7.26
2023-04-02T14:37:38.258Z,7.04
2023-04-02T14:42:52.139Z,6.99
2023-04-02T14:47:57.675Z,6.83
2023-04-02T14:53:02.211Z,6.99
2023-04-02T14:58:05.564Z,7.02
2023-04-02T15:03:07.634Z,6.64
2023-04-02T15:08:15.600Z,6.87
2023-04-02T15:13:21.380Z,7.01
2023-04-02T15:18:20.164Z,7.11
2023-04-02T15:23:51.113Z,7.17
2023-04-02T15:29:28.869Z,7.19
2023-04-02T15:35:01.014Z,7.28
2023-04-02T15:40:02.844Z,7.33
2023-04-02T15:45:09.660Z,7.23
2023-04-02T15:50:42.884Z,7.33
2023-04-02T15:56:04.232Z,6.96
2023-04-02T16:01:29.548Z,7.02
2023-04-02T16:06:56.661Z,7.15
2023-04-02T16:12:17.051Z,7.26
2023-04-02T16:17:25.388Z,7.31
2023-04-02T16:22:28.437Z,7.31
2023-04-02T16:27:40.349Z,7.42
2023-04-02T16:32:51.459Z,7.21
2023-04-02T16:38:07.857Z,7.49
2023-04-02T16:43:09.690Z,7.43
2023-04-02T16:48:24.136Z,7.50
2023-04-02T16:54:01.115Z,7.55
2023-04-02T16:59:48.926Z,7.53
2023-04-02T17:04:53.225Z,7.51
2023-04-02T17:09:57.309Z,7.41
2023-04-02T17:15:11.516Z,7.19
2023-04-02T17:20:21.062Z,7.25
2023-04-02T17:25:25.960Z,7.30
2023-04-02T17:30:48.002Z,7.38
2023-04-02T17:53:52.623Z,7.27
2023-04-02T17:59:29.917Z,7.14
2023-04-02T18:04:41.775Z,6.84
2023-04-02T18:09:46.999Z,6.63
2023-04-02T18:15:23.490Z,7.16
2023-04-02T18:20:37.338Z,7.09
2023-04-02T18:26:07.001Z,7.25
2023-04-02T18:31:11.886Z,7.27
2023-04-02T18:36:28.469Z,7.31
2023-04-02T18:41:36.522Z,6.96
2023-04-02T18:46:41.423Z,7.11
2023-04-02T18:51:40.356Z,6.89
2023-04-02T18:56:40.491Z,7.00
2023-04-02T19:01:44.196Z,6.46
2023-04-02T19:06:47.204Z,6.85
2023-04-02T19:11:47.840Z,6.95
2023-04-02T19:17:23.244Z,6.71
2023-04-02T19:22:49.898Z,6.81
2023-04-02T19:28:07.249Z,6.84
2023-04-02T19:33:15.007Z,7.07
2023-04-02T19:38:39.873Z,6.78
2023-04-02T19:43:38.646Z,6.94
2023-04-02T19:48:47.974Z,6.94
2023-04-02T19:53:46.700Z,7.06
2023-04-02T19:58:45.835Z,6.74
2023-04-02T20:03:44.836Z,6.73
2023-04-02T20:08:43.768Z,6.88
2023-04-02T20:13:45.189Z,6.86
2023-04-02T20:18:44.007Z,6.85
2023-04-02T20:23:42.934Z,6.69
2023-04-02T20:28:41.826Z,6.86
2023-04-02T20:33:41.384Z,6.86
2023-04-02T20:38:40.546Z,6.88
2023-04-02T20:43:40.887Z,6.99
2023-04-02T20:48:43.289Z,6.96
2023-04-02T20:58:23.274Z,6.80
2023-04-02T21:03:22.153Z,6.69
2023-04-02T21:08:21.282Z,6.71
2023-04-02T21:13:20.437Z,6.73
2023-04-02T21:18:19.702Z,6.65
2023-04-02T21:23:18.489Z,6.49
2023-04-02T21:28:17.403Z,6.59
2023-04-02T21:33:16.332Z,6.53
2023-04-02T21:38:15.380Z,6.56
2023-04-02T21:43:14.124Z,6.39
2023-04-02T21:48:12.968Z,6.34
2023-04-02T21:53:11.910Z,6.43
2023-04-02T21:58:10.773Z,6.53
2023-04-02T22:03:11.730Z,6.53
2023-04-02T22:08:13.170Z,6.27
2023-04-02T22:13:11.983Z,6.33
2023-04-02T22:18:10.960Z,6.34
2023-04-02T22:23:10.326Z,6.40
2023-04-02T22:28:09.475Z,6.51
2023-04-02T22:33:08.622Z,6.31
2023-04-02T22:38:07.625Z,6.14
2023-04-02T22:43:06.432Z,6.08
2023-04-02T22:48:05.442Z,5.98
2023-04-02T22:53:04.680Z,6.17
2023-04-02T22:58:03.500Z,5.79
2023-04-02T23:03:02.675Z,6.11
2023-04-02T23:08:01.613Z,6.23
2023-04-02T23:13:00.686Z,6.18
2023-04-02T23:17:59.558Z,5.82
2023-04-02T23:22:58.350Z,5.60
2023-04-02T23:27:57.215Z,5.79
2023-04-02T23:32:56.223Z,5.47
2023-04-02T23:37:55.005Z,5.51
2023-04-02T23:42:53.781Z,5.53
2023-04-02T23:47:52.596Z,5.60
2023-04-02T23:52:51.505Z,5.43
2023-04-02T23:57:51.449Z,5.33
